Latest Coastal Weather Observations for Brisbane Airport

IDQ60701

Issued at 7:42 am EST Saturday 20 December 2014 (issued every 10 minutes, with the page automatically refreshed every 10 minutes)

About coastal observations | Map of coastal stations | Coastal observations for QLD | Marine services | Other Formats
Station Details ID: 040842 Name: BRISBANE AERO Lat: -27.39 Lon: 153.13 Height: 4.51 m
Data from the previous 72 hours. | See also: Recent months at Brisbane Airport
Date/Time
EST
Temp

°C
Wind Pressure Rain
since 9am
mm
Weather Cloud Vis
km
Sea
Height
m
Swell
Dir
 
Speed
knots
Gust
knots
hPa Trend Height
m
Period
s
Dir
20/07:30am 25.1 SE 8 14 1015.5 - 0.0 - Mostly clear 10 - - - -
20/07:00am 24.5 SSE 7 13 1015.3 - 0.0 - Mostly clear 10 - - - -
20/06:30am 23.7 S 6 9 1014.9 - 0.0 - Mostly clear 10 - - - -
20/06:00am 22.9 S 6 10 1014.6 R 0.0 Haze Mostly clear 17 - - - -
20/05:30am 22.2 S 7 11 1014.3 - 0.0 - Mostly clear 10 - - - -
20/05:00am 21.8 S 6 9 1014.0 - 0.0 - Mostly clear 10 - - - -
20/04:30am 21.8 SSE 6 9 1013.6 - 0.0 - Mostly clear 10 - - - -
20/04:00am 21.9 S 7 9 1013.4 - 0.0 - Mostly clear 10 - - - -
20/03:30am 21.8 S 6 10 1013.4 - 0.0 - - 10 - - - -
20/02:30am 22.4 SSE 7 13 1013.2 - 0.0 - Mostly clear 10 - - - -
20/02:00am 22.8 SSE 7 13 1013.2 - 0.0 - Mostly clear 10 - - - -
20/01:30am 23.2 SSE 7 12 1013.3 - 0.0 - Mostly clear 10 - - - -
20/01:00am 23.4 SSE 7 12 1013.5 - 0.0 - Mostly clear 10 - - - -
20/12:30am 23.7 SSE 8 14 1013.8 - 0.0 - Mostly clear 10 - - - -
 
Date/Time
EST
Temp

°C
Wind Pressure Rain
since 9am
mm
Weather Cloud Vis
km
Sea
Height
m
Swell
Dir
 
Speed
knots
Gust
knots
hPa Trend Height
m
Period
s
Dir
19/11:30pm 24.6 SSE 8 14 1014.0 - 0.0 - Partly cloudy 10 - - - -
19/11:00pm 24.9 SE 8 15 1013.9 - 0.0 - Partly cloudy 10 - - - -
19/10:30pm 25.1 SE 9 15 1013.8 - 0.0 - Partly cloudy 10 - - - -
19/10:00pm 25.8 E 7 13 1013.5 - 0.0 - Partly cloudy 10 - - - -
19/09:30pm 26.0 ESE 7 12 1013.2 - 0.0 - Partly cloudy 10 - - - -
19/09:00pm 25.4 E 5 7 1012.8 R 0.0 Fine Mostly clear 30 - - - -
19/08:30pm 25.5 E 5 8 1012.3 - 0.0 - Mostly clear 10 - - - -
19/08:00pm 25.8 E 6 8 1012.0 - 0.0 - Mostly clear 10 - - - -
19/07:30pm 25.6 NE 9 14 1011.5 - 0.0 - Mostly clear 10 - - - -
19/07:00pm 25.3 N 10 14 1010.0 - 0.0 - Mostly clear 10 - - - -
19/06:30pm 25.7 N 11 14 1009.7 - 0.0 - Mostly clear 10 - - - -
19/06:00pm 26.2 N 12 15 1009.3 R 0.0 Fine Mostly clear 35 - - - -
19/05:30pm 26.4 N 15 19 1009.0 - 0.0 - Mostly clear 10 - - - -
19/05:00pm 27.7 N 13 16 1008.6 - 0.0 - Mostly clear 10 - - - -
19/04:30pm 27.7 N 15 18 1008.4 - 0.0 - Mostly clear 10 - - - -
19/04:00pm 28.1 N 15 18 1008.1 - 0.0 - Mostly clear 10 - - - -
19/03:30pm 28.8 N 16 18 1008.3 - 0.0 - Mostly clear 10 - - - -
19/03:00pm 28.4 N 14 17 1008.5 F 0.0 Fine Mostly clear 35 - - - -
19/02:30pm 29.3 NNE 13 16 1008.9 - 0.0 - Mostly clear 10 - - - -
19/02:00pm 28.6 N 12 15 1009.2 - 0.0 - Mostly clear 10 - - - -
19/01:30pm 28.9 N 11 14 1009.3 - 0.0 - Mostly clear 10 - - - -
19/01:00pm 29.0 N 9 13 1009.6 - - - Mostly clear 10 - - - -
19/12:30pm 28.9 N 8 10 1009.8 - 0.0 - Mostly clear 10 - - - -
19/12:00pm 28.3 N 8 11 1010.3 F 0.0 Fine Mostly clear 35 - - - -
19/11:30am 28.5 NNE 6 9 1010.7 - 0.0 - Mostly clear 10 - - - -
19/11:00am 27.8 N 7 10 1010.9 - 0.0 - Mostly clear 10 - - - -
19/10:30am 27.6 N 8 11 1011.1 - 0.0 - Mostly clear 10 - - - -
19/10:00am 27.6 N 7 11 1011.2 - 0.0 - Mostly clear 10 - - - -
19/09:30am 26.1 W 5 11 1011.6 - 0.0 - Mostly clear 10 - - - -
19/09:00am 24.4 N 3 7 1011.8 F 18.2 Fine Partly cloudy 35 - - - -
19/08:30am 23.1 WNW 5 7 1011.9 - 18.0 - Mostly clear 10 - - - -
19/08:00am 22.9 WNW 5 8 1011.9 - 18.0 - Mostly clear 10 - - - -
19/07:30am 22.1 NW 7 9 1012.0 - 18.0 - Mostly clear 10 - - - -
19/07:00am 21.7 WNW 6 8 1012.0 - 18.0 - Mostly clear 10 - - - -
19/06:30am 21.7 W 5 6 1011.8 - 18.0 - Mostly clear 10 - - - -
19/06:00am 21.4 WSW 6 8 1011.5 F 18.0 Distant precip. Mostly cloudy 35 - - - -
19/05:30am 21.4 WSW 6 8 1011.5 - 18.0 - Mostly clear 10 - - - -
19/05:00am 21.3 NNW 5 7 1011.1 - 18.0 - Mostly clear 10 - - - -
19/04:30am 21.3 W 5 6 1011.0 - 18.0 Rain Mostly clear 10 - - - -
19/04:00am 21.3 SW 5 7 1010.9 - 18.0 Rain Mostly clear 10 - - - -
19/03:30am 21.4 W 7 8 1011.1 - 17.8 Rain Mostly clear 10 - - - -
19/03:00am 21.4 W 5 6 1011.2 F 17.8 Rain Cloudy 13 - - - -
19/02:30am 21.6 NW 6 8 1011.5 - 17.6 Rain Mostly clear 10 - - - -
19/02:00am 21.6 NW 5 6 1012.0 - 17.2 Rain Mostly clear 9 - - - -
19/01:30am 22.1 NW 7 10 1012.3 - 15.6 Rain Mostly clear 6 - - - -
19/01:00am 22.7 WNW 7 9 1012.3 - 14.4 Rain Mostly clear 8 - - - -
19/12:30am 22.9 WNW 7 10 1012.2 - 13.0 Rain Mostly clear 6 - - - -
19/12:16am 23.1 WNW 9 12 1012.3 - 11.4 Rain Mostly clear 6 - - - -
19/12:00am 23.2 WNW 9 14 1012.1 R 10.8 Rain Cloudy 9 - - - -
 
Date/Time
EST
Temp

°C
Wind Pressure Rain
since 9am
mm
Weather Cloud Vis
km
Sea
Height
m
Swell
Dir
 
Speed
knots
Gust
knots
hPa Trend Height
m
Period
s
Dir
18/11:30pm 23.9 NNW 10 18 1011.4 - 10.6 Rain Mostly clear 10 - - - -
18/11:00pm 23.7 N 7 8 1011.4 - 10.6 Rain Mostly clear 10 - - - -
18/10:30pm 23.3 N 3 5 1011.5 - 10.0 Rain Mostly clear 10 - - - -
18/10:00pm 23.5 CALM 0 0 1011.2 - 10.0 Rain Mostly clear 10 - - - -
18/09:30pm 23.3 S 2 4 1011.2 - 10.0 Showers Mostly clear 10 - - - -
18/09:00pm 23.1 NE 5 6 1010.8 R 10.0 Showers Cloudy 20 - - - -
18/08:30pm 22.7 NNE 6 8 1010.7 - 10.0 Showers Mostly clear 10 - - - -
18/08:00pm 22.7 SSE 3 6 1010.3 - 10.0 Showers Mostly clear 10 - - - -
18/07:30pm 22.6 SSE 5 6 1010.5 - 10.0 Showers Mostly clear 10 - - - -
18/07:00pm 22.5 S 5 9 1010.6 - 10.0 Showers Mostly clear 10 - - - -
18/06:45pm 22.5 S 8 10 1010.0 - 9.8 Thunder Mostly clear 10 - - - -
18/06:30pm 22.4 SSW 15 21 1009.6 - 9.8 Thunderstorm Mostly clear 5 - - - -
18/06:14pm 22.6 SW 21 28 1010.1 - 1.2 Thunderstorm Mostly clear 1 - - - -
18/06:07pm 24.2 SW 24 29 1009.3 - 0.0 Thunderstorm Mostly clear 2 - - - -
18/06:00pm 27.7 SW 22 29 1009.2 R 0.0 Thunderstorm Cloudy 14 - - - -
18/05:55pm 28.1 SW 21 29 1008.7 - 0.0 Thunderstorm Mostly clear 9 - - - -
18/05:53pm 28.4 NW 16 26 1008.7 - 0.0 Thunderstorm Mostly clear 10 - - - -
18/05:46pm 27.7 N 17 21 1006.8 - 0.0 Thunderstorm Mostly clear 10 - - - -
18/05:37pm 27.7 N 18 22 1006.1 - 0.0 Thunder Mostly clear 10 - - - -
18/05:30pm 27.7 N 19 24 1005.8 - 0.0 - Mostly clear 10 - - - -
18/05:00pm 27.5 N 20 25 1005.5 - 0.0 - Mostly clear 10 - - - -
18/04:30pm 27.7 N 20 26 1005.0 - 0.0 - Mostly clear 10 - - - -
18/04:00pm 27.9 N 19 26 1005.0 - 0.0 - Mostly clear 10 - - - -
18/03:30pm 28.0 NNE 16 20 1005.5 - 0.0 - Mostly clear 10 - - - -
18/03:00pm 28.4 NNE 19 25 1005.8 F 0.0 Haze Mostly cloudy 17 - - - -
18/02:30pm 28.8 NNE 19 23 1005.8 - 0.0 - Mostly clear 10 - - - -
18/02:00pm 29.2 NNE 17 21 1006.5 - 0.0 - Mostly clear 10 - - - -
18/01:30pm 29.7 NNE 17 20 1007.2 - 0.0 - Mostly clear 10 - - - -
18/01:00pm 29.5 NNE 14 17 1007.9 - 0.0 - Mostly clear 10 - - - -
18/12:30pm 29.1 NE 14 16 1008.4 - 0.0 - Mostly clear 10 - - - -
18/12:00pm 28.5 NE 13 15 1008.9 F 0.0 Haze Mostly cloudy 14 - - - -
18/11:30am 29.8 N 8 11 1009.3 - 0.0 - Mostly clear 10 - - - -
18/11:00am 29.4 N 9 11 1009.7 - 0.0 - Mostly clear 10 - - - -
18/10:30am 28.7 NNE 10 13 1010.3 - 0.0 - Mostly clear 10 - - - -
18/10:00am 29.5 N 9 13 1010.7 - 0.0 - Mostly clear 10 - - - -
18/09:30am 28.0 N 10 17 1010.6 - 0.0 - Mostly clear 10 - - - -
18/09:00am 27.8 NNE 7 9 1010.7 F 0.2 Haze Mostly cloudy 9 - - - -
18/08:30am 27.6 NNE 8 10 1010.9 - 0.2 - Mostly clear 9 - - - -
18/08:00am 26.4 NNE 4 7 1011.2 - 0.2 - Mostly clear 9 - - - -
18/07:30am 25.8 NE 6 8 1011.0 - 0.2 - Mostly clear 9 - - - -
18/07:00am 26.2 NE 7 10 1011.4 - 0.2 - Mostly clear 8 - - - -
18/06:30am 25.2 ENE 7 9 1011.1 - 0.2 - Mostly clear 9 - - - -
18/06:00am 24.9 E 7 12 1010.7 R 0.2 Haze Mostly cloudy 7 - - - -
18/05:50am 24.8 E 8 11 1010.6 - 0.2 - Mostly cloudy 8 - - - -
18/05:30am 24.9 E 7 10 1010.1 - 0.2 - Mostly clear 8 - - - -
18/05:00am 24.9 E 7 11 1010.0 - 0.2 - Mostly clear 9 - - - -
18/04:30am 24.9 E 7 11 1009.3 - 0.2 - Mostly clear 10 - - - -
18/04:00am 24.9 SSW 7 10 1007.9 - 0.2 - - 10 - - - -
18/03:30am 24.8 SSW 15 20 1007.6 - 0.2 - - 10 - - - -
18/03:00am 25.5 SSW 8 9 1008.2 R 0.2 Recent precip. Mostly cloudy 12 - - - -
18/02:30am 25.5 ENE 6 8 1008.9 - 0.2 Rain Partly cloudy 10 - - - -
18/02:00am 25.5 SSW 7 10 1009.7 - 0.2 - Mostly clear 10 - - - -
18/01:30am 24.7 SSW 7 10 1010.0 - 0.2 Rain Mostly clear 10 - - - -
18/01:00am 24.0 NE 1 6 1009.0 - 0.2 - Mostly clear 10 - - - -
18/12:30am 25.1 E 2 7 1008.8 - 0.2 Thunder Mostly clear 10 - - - -
18/12:18am 24.8 N 5 8 1008.4 - 0.2 Thunder Mostly clear 10 - - - -
18/12:00am 24.4 NNE 7 10 1007.8 R 0.2 Thunderstorm Cloudy 20 - - - -
 
Date/Time
EST
Temp

°C
Wind Pressure Rain
since 9am
mm
Weather Cloud Vis
km
Sea
Height
m
Swell
Dir
 
Speed
knots
Gust
knots
hPa Trend Height
m
Period
s
Dir
17/11:30pm 25.5 NNE 7 9 1007.3 - 0.0 Thunderstorm Partly cloudy 10 - - - -
17/11:00pm 25.8 CALM 0 3 1007.6 - 0.0 Thunder Partly cloudy 10 - - - -
17/10:39pm 25.8 N 8 9 1007.1 - 0.0 Thunder Partly cloudy 10 - - - -
17/10:30pm 25.5 N 8 10 1007.0 - 0.0 Thunder Mostly clear 10 - - - -
17/10:00pm 25.8 N 9 11 1006.8 - 0.0 - - 10 - - - -
17/09:30pm 25.6 NNE 8 10 1006.7 - 0.0 - - 10 - - - -
17/09:00pm 25.8 NNE 11 14 1006.5 R 0.0 Lightning Mostly clear 12 - - - -
17/08:30pm 25.8 NNE 9 11 1006.0 - 0.0 - - 10 - - - -
17/08:00pm 26.1 N 10 14 1005.7 - 0.0 - - 10 - - - -
17/07:30pm 26.3 N 13 18 1005.6 - 0.0 - - 10 - - - -
17/07:00pm 26.5 N 12 15 1005.0 - 0.0 - Mostly clear 10 - - - -
17/06:30pm 26.5 N 11 15 1004.6 - 0.0 - Mostly clear 10 - - - -
17/06:00pm 27.1 N 15 18 1004.0 S 0.0 Haze Mostly clear 12 - - - -
17/05:30pm 27.4 N 15 20 1003.6 - 0.0 - Mostly clear 10 - - - -
17/05:00pm 27.6 N 16 19 1003.5 - 0.0 - Mostly clear 10 - - - -
17/04:30pm 28.1 N 16 21 1003.3 - 0.0 - Mostly clear 10 - - - -
17/04:00pm 28.9 N 16 21 1003.2 - 0.0 - Mostly clear 10 - - - -
17/03:30pm 29.6 N 18 22 1003.1 - 0.0 - Mostly clear 10 - - - -
17/03:00pm 30.3 N 17 21 1003.3 F 0.0 Distant precip. Partly cloudy 25 - - - -
17/02:30pm 31.9 NNE 16 21 1003.6 - 0.0 - Mostly clear 10 - - - -
17/02:00pm 32.1 NNE 16 20 1004.0 - 0.0 - Mostly clear 10 - - - -
17/01:30pm 32.2 NNE 13 18 1004.4 - 0.0 - Mostly clear 10 - - - -
17/01:00pm 31.9 NNE 13 16 1004.8 - 0.0 - Mostly clear 10 - - - -
17/12:30pm 32.1 NNE 13 17 1005.0 - 0.0 - Mostly clear 10 - - - -
17/12:00pm 32.0 NNE 14 16 1005.3 F 0.0 Haze Mostly clear 25 - - - -
17/11:30am 31.6 NNE 10 13 1005.7 - 0.0 - Mostly clear 10 - - - -
17/11:00am 31.3 NNE 9 12 1006.0 - 0.0 - Mostly clear 10 - - - -
17/10:30am 30.5 NNE 8 11 1006.3 - 0.0 - Mostly clear 10 - - - -
17/10:00am 30.0 NNE 4 7 1006.4 - 0.0 - - 10 - - - -
17/09:30am 30.1 N 6 8 1006.6 - 0.0 - - 10 - - - -
17/09:00am 28.9 N 5 8 1006.9 F 0.2 Haze Mostly clear 25 - - - -
17/08:30am 28.4 NNE 3 6 1007.0 - 0.2 - - 10 - - - -
17/08:00am 27.4 SSW 3 4 1007.0 - 0.2 - - 10 - - - -

Other Formats:

Comma delimited format used in spreadsheet applications
http://www.bom.gov.au/fwo/IDQ60701/IDQ60701.94578.axf

JavaScript Object Notation format (JSON) in row-major order
http://www.bom.gov.au/fwo/IDQ60701/IDQ60701.94578.json